Time;durP1;ratioP1;P1;durP2;ratioP2;P2;SDS_P1;SDS_P2;PMS_P1;PMS_P2;Temp;Humidity;BMP_temperature;BMP_pressure;BME280_temperature;BME280_humidity;BME280_pressure;Samples;Min_cycle;Max_cycle;Signal;HPM_P1;HPM_P2
2022/11/11 06:00:28;;;;;;;4.40;4.00;;;7.90;97.20;;;;;;1692217;29;20211;-72
2022/11/11 06:01:19;;;;;;;4.30;3.78;;;7.90;97.20;;;;;;1694364;29;20204;-71
2022/11/11 06:02:11;;;;;;;4.93;4.23;;;7.90;97.20;;;;;;1693814;29;20199;-72
2022/11/11 06:03:02;;;;;;;4.90;4.43;;;7.90;97.20;;;;;;1694122;29;20203;-72
2022/11/11 06:03:54;;;;;;;5.05;3.90;;;7.90;97.20;;;;;;1693231;29;20211;-72
2022/11/11 06:04:46;;;;;;;5.20;4.70;;;7.90;97.20;;;;;;1688044;29;20792;-72
2022/11/11 06:05:37;;;;;;;4.38;3.85;;;7.90;97.20;;;;;;1693640;29;20204;-71
2022/11/11 06:06:28;;;;;;;5.00;4.60;;;7.90;97.20;;;;;;1694158;29;20203;-72
2022/11/11 06:07:19;;;;;;;5.07;4.57;;;7.90;97.20;;;;;;1689843;29;20200;-72
2022/11/11 06:08:11;;;;;;;5.63;4.30;;;7.90;97.20;;;;;;1687769;29;20201;-71
2022/11/11 06:09:02;;;;;;;5.55;4.30;;;7.90;97.20;;;;;;1690632;29;20682;-71
2022/11/11 06:10:29;;;;;;;6.30;4.75;;;7.90;97.20;;;;;;1694357;29;20235;-70
2022/11/11 06:11:05;;;;;;;4.70;4.30;;;8.00;97.20;;;;;;1693467;29;20208;-71
2022/11/11 06:11:56;;;;;;;5.00;4.40;;;7.90;97.20;;;;;;1694396;29;20196;-71
2022/11/11 06:13:56;;;;;;;4.60;4.22;;;8.00;97.20;;;;;;1689337;29;20211;-70
2022/11/11 06:14:47;;;;;;;5.55;5.05;;;8.00;97.20;;;;;;1694278;29;20230;-71
2022/11/11 06:15:40;;;;;;;8.30;6.23;;;8.00;97.20;;;;;;1694326;29;20212;-71
2022/11/11 06:16:31;;;;;;;9.25;6.80;;;8.00;97.20;;;;;;1693570;29;20270;-70
2022/11/11 06:17:23;;;;;;;11.03;7.80;;;8.00;97.20;;;;;;1694345;29;20231;-72
2022/11/11 06:18:13;;;;;;;6.53;5.85;;;8.00;97.20;;;;;;1694281;29;20591;-71
2022/11/11 06:19:05;;;;;;;8.43;7.57;;;7.90;97.20;;;;;;1694293;29;20557;-71
2022/11/11 06:19:56;;;;;;;8.60;6.20;;;7.90;97.20;;;;;;1694283;29;20203;-71
2022/11/11 06:20:53;;;;;;;7.80;6.30;;;7.90;97.20;;;;;;1694308;29;20219;-71
2022/11/11 06:21:55;;;;;;;9.63;6.40;;;7.90;97.20;;;;;;1690663;29;20204;-72
2022/11/11 06:22:56;;;;;;;6.47;5.43;;;7.80;97.20;;;;;;1693448;29;20204;-71
2022/11/11 06:23:47;;;;;;;6.45;5.72;;;7.90;97.20;;;;;;1687756;29;20600;-71
2022/11/11 06:24:38;;;;;;;6.50;5.70;;;7.80;97.20;;;;;;1687662;29;20298;-71
2022/11/11 06:26:40;;;;;;;6.63;5.15;;;7.90;97.20;;;;;;1688080;29;20207;-71
2022/11/11 06:27:32;;;;;;;5.73;5.13;;;7.90;97.20;;;;;;1687616;29;20211;-71
2022/11/11 06:28:23;;;;;;;6.50;6.00;;;7.90;97.20;;;;;;1687725;29;20239;-72
2022/11/11 06:29:14;;;;;;;6.20;5.70;;;7.90;97.20;;;;;;1687534;29;20673;-71
2022/11/11 06:30:06;;;;;;;7.30;5.88;;;7.90;97.20;;;;;;1687787;29;20211;-71
2022/11/11 06:30:59;;;;;;;5.97;5.43;;;7.90;97.20;;;;;;1687515;29;20292;-71
2022/11/11 06:31:50;;;;;;;8.45;5.95;;;7.80;97.20;;;;;;1687723;29;20205;-70
2022/11/11 06:32:41;;;;;;;6.83;6.20;;;7.80;97.20;;;;;;1687685;29;20204;-72
2022/11/11 06:33:33;;;;;;;5.57;5.05;;;7.90;97.20;;;;;;1687763;29;20517;-71
2022/11/11 06:34:24;;;;;;;6.28;5.68;;;7.80;97.20;;;;;;1687639;29;20629;-72
2022/11/11 06:35:15;;;;;;;6.70;6.00;;;7.90;97.20;;;;;;1687730;29;20215;-71
2022/11/11 06:36:08;;;;;;;5.80;5.33;;;7.90;97.20;;;;;;1687515;29;20208;-72
2022/11/11 06:36:58;;;;;;;6.13;5.63;;;7.90;97.20;;;;;;1687549;29;20209;-71
2022/11/11 06:37:50;;;;;;;6.70;6.10;;;7.90;97.20;;;;;;1687451;29;20212;-72
2022/11/11 06:38:41;;;;;;;6.80;6.20;;;7.90;97.20;;;;;;1687737;29;20820;-72
2022/11/11 06:39:33;;;;;;;7.03;6.43;;;7.90;97.20;;;;;;1687721;29;20263;-72
2022/11/11 06:40:24;;;;;;;8.50;6.70;;;7.90;97.20;;;;;;1687588;29;20208;-71
2022/11/11 06:41:16;;;;;;;7.13;6.40;;;7.90;97.20;;;;;;1687815;29;20204;-71
2022/11/11 06:42:06;;;;;;;6.80;6.20;;;7.90;97.20;;;;;;1687747;29;20579;-71
2022/11/11 06:42:58;;;;;;;6.70;5.90;;;7.90;97.20;;;;;;1687699;29;20648;-71
2022/11/11 06:43:49;;;;;;;6.82;5.93;;;7.90;97.20;;;;;;1687726;29;20231;-71
2022/11/11 06:44:41;;;;;;;7.13;6.13;;;7.90;97.20;;;;;;1687642;29;20204;-71
2022/11/11 06:45:32;;;;;;;5.40;4.90;;;7.90;97.20;;;;;;1687712;29;20209;-71
2022/11/11 06:46:26;;;;;;;6.10;4.97;;;7.90;97.20;;;;;;1687423;29;20212;-71
2022/11/11 06:47:17;;;;;;;4.88;4.40;;;7.90;97.20;;;;;;1687649;29;20208;-71
2022/11/11 06:48:09;;;;;;;6.17;5.57;;;7.90;97.20;;;;;;1687780;29;20208;-69
2022/11/11 06:48:59;;;;;;;5.63;5.10;;;7.90;97.20;;;;;;1694145;29;20658;-70
2022/11/11 06:49:51;;;;;;;5.90;5.30;;;7.90;97.20;;;;;;1691966;29;20621;-69
2022/11/11 06:50:42;;;;;;;6.40;5.80;;;7.90;97.20;;;;;;1687210;29;20232;-70
2022/11/11 06:51:34;;;;;;;7.13;5.90;;;7.90;97.20;;;;;;1687679;29;20208;-70
2022/11/11 06:52:24;;;;;;;6.65;6.05;;;7.90;97.20;;;;;;1687536;29;20212;-70
2022/11/11 06:53:18;;;;;;;6.20;5.60;;;7.90;97.20;;;;;;1687772;29;20204;-70
2022/11/11 06:54:09;;;;;;;8.40;7.60;;;7.90;97.20;;;;;;1687627;29;20633;-70
2022/11/11 06:55:00;;;;;;;9.43;8.53;;;7.90;97.20;;;;;;1687628;29;20204;-70
2022/11/11 06:55:52;;;;;;;10.20;8.07;;;7.90;97.20;;;;;;1687712;29;20212;-70
2022/11/11 06:56:43;;;;;;;9.10;8.20;;;7.90;97.20;;;;;;1687286;29;20686;-70
2022/11/11 06:57:34;;;;;;;9.23;7.10;;;7.90;97.20;;;;;;1687549;29;20231;-69
2022/11/11 06:58:26;;;;;;;8.30;7.50;;;7.90;97.20;;;;;;1687712;29;20204;-69
2022/11/11 06:59:17;;;;;;;8.70;7.82;;;7.90;97.20;;;;;;1687449;29;20394;-69
2022/11/11 07:00:10;;;;;;;7.17;6.43;;;7.90;97.20;;;;;;1687742;29;20204;-69
2022/11/11 07:01:03;;;;;;;7.60;6.90;;;7.90;97.20;;;;;;1687565;29;20231;-69
2022/11/11 07:01:56;;;;;;;6.72;6.07;;;8.00;97.20;;;;;;1687598;29;20219;-70
2022/11/11 07:02:53;;;;;;;6.47;5.88;;;8.00;97.20;;;;;;1687693;29;20208;-70
2022/11/11 07:03:45;;;;;;;7.05;6.47;;;8.00;97.20;;;;;;1687700;29;20205;-69
2022/11/11 07:04:36;;;;;;;9.13;5.63;;;8.00;97.20;;;;;;1687337;29;20681;-70
2022/11/11 07:05:27;;;;;;;6.57;5.97;;;8.00;97.20;;;;;;1687404;29;20580;-69
2022/11/11 07:06:19;;;;;;;8.98;5.57;;;8.00;97.20;;;;;;1687321;29;20204;-70
2022/11/11 07:07:10;;;;;;;6.20;5.60;;;8.00;97.20;;;;;;1687573;29;20212;-71
2022/11/11 07:08:02;;;;;;;5.90;5.40;;;8.10;97.20;;;;;;1687561;29;20204;-71
2022/11/11 07:08:54;;;;;;;5.57;5.07;;;8.10;97.20;;;;;;1687586;29;20737;-70
2022/11/11 07:09:45;;;;;;;5.63;5.13;;;8.10;97.20;;;;;;1687614;29;20219;-71
2022/11/11 07:10:38;;;;;;;5.63;5.07;;;8.20;97.20;;;;;;1687542;29;20235;-70
2022/11/11 07:11:29;;;;;;;7.55;5.35;;;8.20;97.20;;;;;;1687688;29;20223;-70
2022/11/11 07:12:21;;;;;;;9.73;5.83;;;8.20;97.20;;;;;;1687622;29;20207;-70
2022/11/11 07:13:13;;;;;;;6.25;4.75;;;8.20;97.20;;;;;;1687494;29;20267;-70
2022/11/11 07:14:05;;;;;;;6.32;5.38;;;8.20;97.20;;;;;;1687557;29;20200;-71
2022/11/11 07:14:55;;;;;;;5.30;4.90;;;8.20;97.20;;;;;;1687556;29;20731;-71
2022/11/11 07:15:48;;;;;;;5.10;4.63;;;8.30;97.20;;;;;;1687666;29;20602;-71
2022/11/11 07:16:38;;;;;;;5.35;4.85;;;8.30;97.20;;;;;;1687283;29;20215;-70
2022/11/11 07:17:31;;;;;;;8.07;5.07;;;8.30;97.20;;;;;;1687556;29;20235;-70
2022/11/11 07:18:23;;;;;;;5.65;5.00;;;8.30;97.20;;;;;;1687433;29;20229;-70
2022/11/11 07:19:14;;;;;;;8.00;5.25;;;8.30;97.20;;;;;;1687627;29;20204;-70
2022/11/11 07:20:07;;;;;;;7.30;5.53;;;8.30;97.20;;;;;;1687547;29;20241;-70
2022/11/11 07:20:58;;;;;;;6.75;5.32;;;8.30;97.20;;;;;;1687153;29;20714;-70
2022/11/11 07:21:50;;;;;;;6.20;5.70;;;8.40;97.20;;;;;;1687687;29;20596;-70
2022/11/11 07:22:40;;;;;;;7.03;5.15;;;8.40;97.20;;;;;;1688528;29;20224;-70
2022/11/11 07:23:32;;;;;;;6.53;5.43;;;8.40;97.20;;;;;;1688872;29;20227;-70
2022/11/11 07:24:23;;;;;;;7.75;5.10;;;8.40;97.20;;;;;;1688864;29;20208;-70
2022/11/11 07:25:15;;;;;;;6.60;5.20;;;8.40;97.20;;;;;;1688896;29;20207;-70
2022/11/11 07:26:05;;;;;;;6.22;5.10;;;8.40;97.20;;;;;;1688782;29;20227;-70
2022/11/11 07:26:58;;;;;;;6.70;4.70;;;8.50;97.20;;;;;;1688842;29;20209;-70
2022/11/11 07:27:49;;;;;;;6.00;4.95;;;8.50;97.20;;;;;;1688815;29;20236;-71
2022/11/11 07:28:40;;;;;;;5.83;4.90;;;8.50;97.20;;;;;;1688795;29;20208;-71
2022/11/11 07:29:31;;;;;;;5.20;4.78;;;8.50;97.20;;;;;;1687851;29;20263;-71
2022/11/11 07:30:23;;;;;;;5.83;5.23;;;8.40;97.20;;;;;;1694557;29;20340;-71
2022/11/11 07:31:13;;;;;;;6.00;4.80;;;8.40;97.20;;;;;;1691416;29;20220;-71
2022/11/11 07:32:05;;;;;;;7.40;5.40;;;8.40;97.20;;;;;;1687070;29;20196;-70
2022/11/11 07:32:57;;;;;;;7.93;5.40;;;8.40;97.20;;;;;;1687577;29;20212;-70
2022/11/11 07:33:49;;;;;;;6.07;5.45;;;8.30;97.20;;;;;;1689373;29;20208;-71
2022/11/11 07:34:40;;;;;;;7.05;5.88;;;8.40;97.20;;;;;;1689285;29;20211;-71
2022/11/11 07:35:32;;;;;;;5.97;5.57;;;8.40;97.20;;;;;;1688272;29;20219;-72
2022/11/11 07:36:22;;;;;;;7.88;5.53;;;8.40;97.20;;;;;;1687386;29;20212;-72
2022/11/11 07:37:14;;;;;;;7.40;6.40;;;8.40;97.20;;;;;;1687881;29;20204;-72
2022/11/11 07:38:06;;;;;;;5.63;5.13;;;8.40;97.20;;;;;;1687889;29;20259;-72
2022/11/11 07:38:57;;;;;;;7.70;5.70;;;8.40;97.20;;;;;;1687853;29;20287;-72
2022/11/11 07:39:49;;;;;;;5.93;5.43;;;8.40;97.20;;;;;;1688173;29;20204;-72
2022/11/11 07:40:40;;;;;;;6.05;5.55;;;8.40;97.20;;;;;;1688292;29;20504;-72
2022/11/11 07:41:31;;;;;;;6.10;5.50;;;8.40;97.20;;;;;;1688274;29;20209;-72
2022/11/11 07:42:22;;;;;;;5.80;5.15;;;8.40;97.20;;;;;;1687636;29;20213;-72
2022/11/11 07:43:14;;;;;;;6.10;5.40;;;8.50;97.20;;;;;;1688192;29;20205;-73
2022/11/11 07:44:04;;;;;;;5.93;5.40;;;8.50;97.20;;;;;;1688184;29;20200;-70
2022/11/11 07:44:56;;;;;;;7.03;5.17;;;8.50;97.20;;;;;;1688051;29;20193;-71
2022/11/11 07:45:47;;;;;;;6.68;5.68;;;8.60;97.20;;;;;;1688164;29;20584;-70
2022/11/11 07:46:38;;;;;;;6.67;5.97;;;8.60;97.20;;;;;;1688062;29;20204;-70
2022/11/11 07:47:29;;;;;;;10.40;5.35;;;8.60;97.20;;;;;;1688700;29;20204;-70
2022/11/11 07:48:22;;;;;;;6.33;5.73;;;8.70;97.20;;;;;;1688659;29;20204;-70
2022/11/11 07:49:13;;;;;;;7.13;5.90;;;8.70;97.20;;;;;;1688738;29;20209;-70
2022/11/11 07:50:07;;;;;;;10.17;8.27;;;8.70;97.20;;;;;;1688748;29;20197;-70
2022/11/11 07:50:59;;;;;;;17.55;12.98;;;8.80;97.20;;;;;;1688594;29;20229;-71
2022/11/11 07:51:50;;;;;;;20.08;15.93;;;8.80;97.20;;;;;;1688610;29;20235;-70
2022/11/11 07:52:47;;;;;;;25.27;18.20;;;8.80;97.20;;;;;;1688689;29;20201;-70
2022/11/11 07:53:38;;;;;;;21.35;17.27;;;8.80;97.20;;;;;;1688562;29;20220;-70
2022/11/11 07:54:30;;;;;;;19.70;16.40;;;8.90;97.20;;;;;;1687450;29;20216;-70
2022/11/11 07:55:21;;;;;;;17.33;14.63;;;8.90;97.20;;;;;;1687715;29;20236;-70
2022/11/11 07:56:13;;;;;;;12.18;9.82;;;8.90;97.20;;;;;;1687872;29;20210;-70
2022/11/11 07:57:04;;;;;;;10.13;8.95;;;9.00;97.20;;;;;;1688630;29;20208;-70
2022/11/11 07:57:57;;;;;;;9.00;8.10;;;9.00;97.20;;;;;;1688560;29;20860;-70
2022/11/11 07:58:48;;;;;;;9.88;7.63;;;9.00;97.20;;;;;;1688663;29;20702;-70
2022/11/11 07:59:40;;;;;;;8.07;7.37;;;9.10;97.20;;;;;;1688729;29;20651;-71
2022/11/11 08:00:32;;;;;;;8.07;6.78;;;9.10;97.20;;;;;;1688165;29;20228;-70
2022/11/11 08:01:23;;;;;;;8.10;7.35;;;9.20;97.20;;;;;;1688712;29;20205;-70
2022/11/11 08:02:15;;;;;;;7.60;6.90;;;9.20;97.20;;;;;;1688689;29;20205;-70
2022/11/11 08:03:06;;;;;;;8.82;7.97;;;9.30;97.20;;;;;;1688682;29;20212;-70
2022/11/11 08:03:59;;;;;;;8.60;7.72;;;9.30;97.20;;;;;;1688532;29;20215;-70
2022/11/11 08:04:50;;;;;;;14.23;8.00;;;9.30;97.20;;;;;;1688645;29;20212;-70
2022/11/11 08:05:41;;;;;;;12.83;8.43;;;9.40;97.20;;;;;;1688521;29;20667;-70
2022/11/11 08:06:32;;;;;;;12.20;9.02;;;9.40;97.20;;;;;;1688305;29;20223;-70
2022/11/11 08:07:24;;;;;;;9.87;8.53;;;9.50;97.20;;;;;;1688622;29;20295;-70
2022/11/11 08:08:14;;;;;;;9.15;7.00;;;9.40;97.20;;;;;;1688484;29;20204;-70
2022/11/11 08:09:06;;;;;;;6.27;5.67;;;9.40;97.20;;;;;;1688691;29;20204;-70
2022/11/11 08:09:57;;;;;;;6.75;6.05;;;9.40;97.20;;;;;;1688577;29;20593;-70
2022/11/11 08:10:49;;;;;;;6.80;6.10;;;9.40;97.20;;;;;;1688263;29;20221;-70
2022/11/11 08:14:02;;;;;;;4.22;3.92;;;9.50;97.20;;;;;;1688730;29;20207;-70
2022/11/11 08:14:54;;;;;;;5.77;4.23;;;9.60;97.20;;;;;;1688544;29;20295;-71
2022/11/11 08:15:45;;;;;;;7.43;4.30;;;9.60;97.20;;;;;;1688647;29;20223;-70
2022/11/11 08:16:36;;;;;;;4.93;4.37;;;9.60;97.20;;;;;;1688237;29;20299;-70
2022/11/11 08:17:27;;;;;;;5.38;4.88;;;9.70;97.20;;;;;;1688571;29;20457;-70
2022/11/11 08:18:19;;;;;;;5.95;4.68;;;9.70;97.20;;;;;;1688427;29;20213;-70
2022/11/11 08:19:11;;;;;;;5.10;4.03;;;9.70;97.20;;;;;;1688521;29;20209;-70
2022/11/11 08:20:03;;;;;;;3.95;3.60;;;9.80;97.20;;;;;;1688496;29;20340;-70
2022/11/11 08:20:54;;;;;;;4.00;3.70;;;9.80;97.20;;;;;;1688476;29;20703;-70
2022/11/11 08:21:45;;;;;;;4.17;3.77;;;9.80;97.20;;;;;;1688589;29;20570;-70
2022/11/11 08:22:37;;;;;;;5.00;4.13;;;9.80;97.20;;;;;;1688457;29;20234;-70
2022/11/11 08:23:32;;;;;;;3.97;3.55;;;9.90;97.20;;;;;;1688557;29;20750;-70
2022/11/11 08:24:23;;;;;;;5.07;3.63;;;9.90;97.20;;;;;;1688497;29;20220;-70
2022/11/11 08:25:14;;;;;;;4.63;4.07;;;9.90;97.20;;;;;;1688479;29;20300;-70
2022/11/11 08:26:06;;;;;;;4.45;3.35;;;10.00;97.20;;;;;;1688501;29;20215;-70
2022/11/11 08:26:58;;;;;;;4.43;3.63;;;10.00;97.20;;;;;;1688414;29;20208;-70
2022/11/11 08:27:49;;;;;;;4.18;3.78;;;10.10;97.20;;;;;;1688288;29;20656;-71
2022/11/11 08:28:40;;;;;;;4.93;3.50;;;10.10;97.20;;;;;;1688407;29;20549;-70
2022/11/11 08:29:31;;;;;;;4.35;3.33;;;10.20;97.20;;;;;;1688481;29;20485;-70
2022/11/11 08:30:23;;;;;;;4.03;3.37;;;10.30;97.20;;;;;;1688274;29;20204;-70
2022/11/11 08:31:14;;;;;;;3.92;3.50;;;10.30;97.20;;;;;;1688463;29;20205;-70
2022/11/11 08:32:06;;;;;;;4.80;3.67;;;10.40;97.20;;;;;;1688533;29;20208;-70
2022/11/11 08:32:57;;;;;;;4.63;3.53;;;10.40;97.20;;;;;;1688419;29;20221;-70
2022/11/11 08:33:49;;;;;;;3.45;3.15;;;10.50;97.20;;;;;;1687833;29;20212;-70
2022/11/11 08:34:41;;;;;;;6.32;3.50;;;10.50;97.20;;;;;;1687949;29;20220;-71
2022/11/11 08:35:32;;;;;;;6.53;3.65;;;10.50;97.20;;;;;;1688457;29;20628;-70
2022/11/11 08:36:24;;;;;;;4.22;3.33;;;10.60;97.20;;;;;;1688161;29;20587;-71
2022/11/11 08:37:15;;;;;;;5.60;3.40;;;10.60;97.20;;;;;;1688348;29;20223;-70
2022/11/11 08:38:06;;;;;;;3.60;3.30;;;10.70;97.20;;;;;;1688287;29;20606;-70
2022/11/11 08:38:58;;;;;;;5.40;4.03;;;10.70;97.20;;;;;;1688381;29;20570;-70
2022/11/11 08:39:48;;;;;;;3.20;2.92;;;10.70;97.20;;;;;;1688446;29;20224;-70
2022/11/11 08:40:40;;;;;;;4.90;3.83;;;10.80;97.20;;;;;;1688252;29;20236;-70
2022/11/11 08:41:31;;;;;;;5.15;3.80;;;10.80;97.20;;;;;;1688341;29;20219;-70
2022/11/11 08:42:23;;;;;;;6.00;3.60;;;10.90;97.20;;;;;;1688373;29;20208;-71
2022/11/11 08:43:14;;;;;;;4.38;3.45;;;10.90;97.20;;;;;;1688375;29;20200;-70
2022/11/11 08:44:05;;;;;;;4.40;4.00;;;10.90;97.20;;;;;;1688005;29;20200;-70
2022/11/11 08:44:57;;;;;;;4.22;3.75;;;10.80;97.20;;;;;;1688355;29;20448;-70
2022/11/11 08:45:51;;;;;;;5.38;4.60;;;10.80;97.20;;;;;;1688416;29;20215;-70
2022/11/11 08:46:43;;;;;;;5.57;3.60;;;10.90;97.20;;;;;;1688111;29;20244;-70
2022/11/11 08:47:33;;;;;;;4.70;4.30;;;10.90;97.20;;;;;;1688334;29;20209;-70
2022/11/11 08:48:25;;;;;;;4.40;3.77;;;10.90;97.20;;;;;;1688263;29;20212;-71
2022/11/11 08:49:17;;;;;;;4.50;4.05;;;10.90;97.20;;;;;;1688379;29;20573;-71
2022/11/11 08:50:09;;;;;;;4.40;4.00;;;11.00;97.20;;;;;;1688378;29;20211;-70
2022/11/11 08:51:01;;;;;;;4.00;3.30;;;11.00;97.20;;;;;;1688198;29;20789;-71
2022/11/11 08:51:52;;;;;;;4.57;3.75;;;11.00;97.20;;;;;;1688316;29;20219;-70
2022/11/11 08:52:46;;;;;;;4.40;4.00;;;11.10;97.20;;;;;;1688335;29;20200;-71
2022/11/11 08:53:37;;;;;;;4.10;3.70;;;11.10;97.20;;;;;;1688306;29;20212;-70
2022/11/11 08:54:28;;;;;;;5.33;3.70;;;11.10;97.20;;;;;;1688334;29;20283;-70
2022/11/11 08:55:19;;;;;;;4.88;3.90;;;11.10;97.20;;;;;;1688196;29;20212;-70
2022/11/11 08:56:11;;;;;;;5.80;4.40;;;11.10;97.20;;;;;;1688055;29;20205;-70
2022/11/11 08:57:02;;;;;;;5.40;4.90;;;11.20;97.20;;;;;;1688167;29;20209;-71
2022/11/11 08:58:01;;;;;;;10.57;6.50;;;11.20;97.20;;;;;;1688311;29;20200;-71
2022/11/11 08:58:51;;;;;;;7.20;6.53;;;11.20;97.20;;;;;;1688285;29;20491;-70
2022/11/11 08:59:43;;;;;;;7.33;6.57;;;11.20;97.20;;;;;;1688269;29;20200;-70
2022/11/11 09:00:34;;;;;;;7.57;6.88;;;11.30;97.20;;;;;;1687880;29;20217;-70
2022/11/11 09:01:26;;;;;;;10.37;6.60;;;11.30;97.20;;;;;;1688313;29;20208;-70
2022/11/11 09:02:16;;;;;;;8.23;7.15;;;11.30;97.20;;;;;;1688160;29;20207;-70
2022/11/11 09:03:11;;;;;;;7.50;6.67;;;11.40;97.20;;;;;;1688234;29;20211;-70
2022/11/11 09:04:02;;;;;;;6.88;6.18;;;11.40;97.20;;;;;;1688177;29;20967;-70
2022/11/11 09:04:54;;;;;;;6.20;4.87;;;11.40;97.20;;;;;;1688256;29;20682;-70
2022/11/11 09:05:46;;;;;;;5.00;4.55;;;11.50;97.20;;;;;;1688159;29;20449;-70
2022/11/11 09:06:40;;;;;;;5.43;4.25;;;11.60;97.20;;;;;;1687901;29;20585;-70
2022/11/11 09:07:31;;;;;;;5.10;4.00;;;11.60;97.20;;;;;;1688225;29;20224;-70
2022/11/11 09:08:23;;;;;;;4.38;3.97;;;11.60;97.20;;;;;;1688063;29;20199;-70
2022/11/11 09:09:13;;;;;;;5.05;3.95;;;11.70;97.20;;;;;;1688172;29;20575;-70
2022/11/11 09:10:06;;;;;;;5.93;4.20;;;11.80;97.20;;;;;;1688205;29;20227;-70
2022/11/11 09:10:58;;;;;;;7.25;3.70;;;11.80;97.20;;;;;;1688045;29;20477;-70
2022/11/11 09:11:50;;;;;;;9.07;4.00;;;11.90;97.20;;;;;;1688212;29;20378;-70
2022/11/11 09:12:41;;;;;;;4.25;3.60;;;11.90;97.20;;;;;;1687854;29;20667;-70
2022/11/11 09:13:32;;;;;;;4.10;3.17;;;12.00;97.20;;;;;;1688293;29;20671;-70
2022/11/11 09:14:23;;;;;;;3.60;3.30;;;12.10;97.20;;;;;;1688261;29;20200;-70
2022/11/11 09:15:15;;;;;;;4.57;3.70;;;12.20;97.20;;;;;;1688128;29;20197;-70
2022/11/11 09:16:07;;;;;;;3.58;3.10;;;12.30;97.20;;;;;;1687923;29;20238;-71
2022/11/11 09:16:58;;;;;;;3.30;3.00;;;12.40;97.20;;;;;;1688096;29;20623;-70
2022/11/11 09:17:49;;;;;;;3.95;3.25;;;12.50;97.20;;;;;;1688063;29;20211;-70
2022/11/11 09:18:41;;;;;;;4.10;3.13;;;12.60;97.20;;;;;;1688114;29;20216;-70
2022/11/11 09:19:32;;;;;;;3.47;3.17;;;12.70;97.20;;;;;;1688215;29;20580;-70
2022/11/11 09:20:24;;;;;;;4.07;3.50;;;12.80;97.20;;;;;;1688094;29;20227;-70
2022/11/11 09:21:16;;;;;;;3.70;3.25;;;12.90;97.20;;;;;;1688184;29;20212;-70
2022/11/11 09:22:08;;;;;;;5.90;3.70;;;13.00;97.20;;;;;;1688220;29;20459;-70
2022/11/11 09:22:58;;;;;;;4.60;4.00;;;13.00;97.20;;;;;;1688048;29;20231;-70
2022/11/11 09:23:50;;;;;;;4.80;4.40;;;13.10;97.20;;;;;;1688151;29;20208;-70
2022/11/11 09:24:41;;;;;;;4.82;4.35;;;13.20;97.20;;;;;;1688080;29;20448;-70
2022/11/11 09:25:32;;;;;;;5.77;4.43;;;13.40;97.20;;;;;;1688148;29;20208;-70
2022/11/11 09:26:24;;;;;;;5.30;3.53;;;13.50;97.20;;;;;;1687968;29;20209;-70
2022/11/11 09:27:15;;;;;;;4.15;3.60;;;13.70;97.20;;;;;;1687733;29;20215;-70
2022/11/11 09:28:07;;;;;;;5.50;3.37;;;13.90;97.20;;;;;;1688155;29;20215;-70
2022/11/11 09:28:57;;;;;;;4.70;3.70;;;14.00;97.20;;;;;;1687796;29;20204;-70
2022/11/11 09:29:49;;;;;;;4.30;3.90;;;14.20;97.20;;;;;;1688153;29;20256;-70
2022/11/11 09:30:40;;;;;;;3.22;2.67;;;14.30;97.20;;;;;;1687896;29;20871;-69
2022/11/11 09:31:32;;;;;;;6.30;4.20;;;14.50;97.20;;;;;;1688178;29;20208;-69
2022/11/11 09:32:22;;;;;;;5.40;4.47;;;14.60;97.20;;;;;;1688098;29;20939;-70
2022/11/11 09:33:17;;;;;;;7.70;4.93;;;14.80;97.20;;;;;;1688172;29;20562;-70
2022/11/11 09:34:07;;;;;;;5.07;4.57;;;14.90;97.20;;;;;;1688124;29;20236;-70
2022/11/11 09:35:00;;;;;;;4.30;3.53;;;15.10;97.20;;;;;;1688075;29;20218;-70
2022/11/11 09:35:50;;;;;;;7.05;3.90;;;15.10;97.20;;;;;;1688037;29;20205;-70
2022/11/11 09:36:43;;;;;;;5.50;4.10;;;15.20;97.20;;;;;;1687785;29;20212;-70
2022/11/11 09:37:34;;;;;;;5.07;3.45;;;15.30;97.20;;;;;;1688104;29;20213;-70
2022/11/11 09:38:26;;;;;;;5.67;2.90;;;15.50;97.20;;;;;;1687932;29;20236;-70
2022/11/11 09:39:17;;;;;;;5.07;3.13;;;15.50;97.20;;;;;;1687972;29;20455;-70
2022/11/11 09:40:16;;;;;;;4.97;2.70;;;15.60;97.20;;;;;;1688111;29;20201;-70
2022/11/11 09:41:14;;;;;;;4.10;2.88;;;15.60;97.20;;;;;;1687715;29;20212;-70
2022/11/11 09:42:15;;;;;;;3.50;3.25;;;15.70;97.20;;;;;;1688004;29;20206;-70
2022/11/11 09:43:16;;;;;;;4.10;3.70;;;15.80;97.20;;;;;;1688057;29;20205;-70
2022/11/11 09:44:23;;;;;;;5.45;4.10;;;15.80;97.20;;;;;;1688037;29;20212;-70
2022/11/11 09:45:20;;;;;;;4.47;4.00;;;15.90;97.20;;;;;;1687845;29;20482;-70
2022/11/11 09:46:22;;;;;;;6.32;3.80;;;16.00;97.20;;;;;;1687746;29;20821;-70
2022/11/11 09:47:19;;;;;;;4.30;3.17;;;16.10;97.20;;;;;;1687941;29;20592;-70
2022/11/11 09:48:33;;;;;;;4.15;3.10;;;16.20;97.20;;;;;;1687901;29;20205;-70
2022/11/11 09:49:47;;;;;;;3.88;3.47;;;16.20;97.20;;;;;;1687967;29;20280;-70
2022/11/11 09:50:39;;;;;;;3.80;3.50;;;16.30;97.20;;;;;;1681377;29;20231;-70
2022/11/11 09:51:40;;;;;;;3.60;3.00;;;16.30;97.20;;;;;;1688046;29;20220;-70
2022/11/11 09:52:36;;;;;;;3.35;2.97;;;16.40;97.20;;;;;;1688032;29;20215;-70
2022/11/11 09:53:32;;;;;;;4.25;2.70;;;16.40;97.20;;;;;;1688010;29;20660;-70
2022/11/11 09:54:32;;;;;;;3.30;3.00;;;16.50;97.20;;;;;;1687938;29;20209;-70
2022/11/11 09:55:31;;;;;;;4.70;3.70;;;16.50;97.20;;;;;;1687982;29;20209;-70
2022/11/11 09:56:24;;;;;;;4.68;3.30;;;16.50;97.20;;;;;;1687722;29;20205;-70
2022/11/11 09:57:27;;;;;;;3.10;2.70;;;16.50;97.20;;;;;;1687869;29;20204;-70
2022/11/11 09:58:23;;;;;;;3.45;3.15;;;16.60;97.20;;;;;;1687558;29;20275;-70
2022/11/11 09:59:18;;;;;;;4.03;2.90;;;16.50;97.20;;;;;;1687988;29;20260;-70
2022/11/11 10:00:15;;;;;;;3.40;2.92;;;16.40;97.20;;;;;;1687689;29;20204;-70
2022/11/11 10:01:12;;;;;;;4.03;3.05;;;16.30;97.20;;;;;;1687911;29;20203;-70
2022/11/11 10:02:09;;;;;;;5.43;3.17;;;16.20;97.20;;;;;;1687900;29;20209;-70
2022/11/11 10:03:12;;;;;;;6.30;2.90;;;16.10;97.20;;;;;;1687842;29;20204;-70
2022/11/11 10:04:14;;;;;;;3.45;3.15;;;16.10;97.20;;;;;;1687894;29;20204;-70
2022/11/11 10:05:10;;;;;;;3.40;2.80;;;16.00;97.20;;;;;;1687952;29;20201;-70
2022/11/11 10:06:07;;;;;;;3.78;3.22;;;16.00;97.20;;;;;;1687876;29;20208;-70
2022/11/11 10:07:04;;;;;;;3.90;3.25;;;16.00;97.20;;;;;;1687880;29;20200;-70
2022/11/11 10:08:01;;;;;;;4.93;3.20;;;16.00;97.20;;;;;;1687975;29;20205;-70
2022/11/11 10:09:01;;;;;;;3.25;2.95;;;16.00;97.20;;;;;;1687903;29;20213;-70
2022/11/11 10:09:58;;;;;;;3.25;2.70;;;16.10;97.20;;;;;;1687886;29;20212;-70
2022/11/11 10:10:52;;;;;;;3.72;3.22;;;16.30;97.20;;;;;;1687924;29;20228;-70
2022/11/11 10:11:51;;;;;;;3.15;2.85;;;16.30;97.20;;;;;;1687987;29;20217;-70
2022/11/11 10:12:49;;;;;;;6.85;3.33;;;16.30;97.20;;;;;;1687912;29;20681;-70
2022/11/11 10:13:41;;;;;;;4.35;3.65;;;16.40;97.20;;;;;;1687839;29;20216;-70
2022/11/11 10:14:35;;;;;;;3.65;3.22;;;16.50;97.20;;;;;;1687110;29;20236;-70
2022/11/11 10:15:35;;;;;;;3.55;3.00;;;16.50;97.20;;;;;;1687840;29;20573;-70
2022/11/11 10:16:36;;;;;;;4.80;3.30;;;16.50;97.20;;;;;;1685401;29;20645;-70
2022/11/11 10:17:36;;;;;;;3.40;3.08;;;16.60;97.20;;;;;;1688010;29;20212;-70
2022/11/11 10:18:49;;;;;;;4.53;3.63;;;16.60;97.20;;;;;;1687728;29;20229;-70
2022/11/11 10:19:49;;;;;;;3.05;2.75;;;16.60;97.20;;;;;;1687822;29;20216;-70
2022/11/11 10:20:43;;;;;;;3.85;3.42;;;16.70;97.20;;;;;;1687886;29;20233;-70
2022/11/11 10:21:40;;;;;;;3.78;3.00;;;16.80;97.20;;;;;;1687777;29;20208;-70
2022/11/11 10:22:35;;;;;;;6.35;3.30;;;16.90;97.20;;;;;;1687920;29;20201;-70
2022/11/11 10:23:31;;;;;;;3.30;3.00;;;17.00;97.20;;;;;;1687782;29;20671;-71
2022/11/11 10:24:32;;;;;;;4.18;2.40;;;17.10;97.20;;;;;;1687830;29;20235;-70
2022/11/11 10:25:25;;;;;;;3.30;2.67;;;17.20;97.20;;;;;;1687917;29;20209;-70
2022/11/11 10:26:19;;;;;;;4.93;3.05;;;17.30;97.20;;;;;;1687485;29;20215;-70
2022/11/11 10:27:17;;;;;;;3.25;2.75;;;17.40;97.20;;;;;;1687684;29;20251;-70
2022/11/11 10:28:14;;;;;;;3.33;2.92;;;17.50;97.20;;;;;;1687741;29;20204;-70
2022/11/11 10:29:13;;;;;;;3.88;2.80;;;17.60;97.20;;;;;;1687797;29;20212;-70
2022/11/11 10:30:15;;;;;;;4.22;2.50;;;17.70;97.20;;;;;;1687673;29;20220;-70
2022/11/11 10:31:16;;;;;;;3.67;2.72;;;17.80;97.20;;;;;;1687837;29;20579;-71
2022/11/11 10:32:14;;;;;;;5.07;2.83;;;17.80;97.20;;;;;;1687742;29;20200;-70
2022/11/11 10:33:15;;;;;;;6.03;2.75;;;17.90;97.20;;;;;;1687752;29;20720;-70
2022/11/11 10:34:10;;;;;;;3.58;2.63;;;17.90;97.20;;;;;;1687845;29;20330;-70
2022/11/11 10:35:15;;;;;;;3.25;2.45;;;18.00;97.20;;;;;;1687717;29;20205;-71
2022/11/11 10:36:16;;;;;;;6.07;2.92;;;18.00;97.20;;;;;;1687563;29;20253;-70
2022/11/11 10:37:18;;;;;;;4.45;2.60;;;18.10;97.20;;;;;;1687772;29;20204;-71
2022/11/11 10:38:21;;;;;;;3.75;2.30;;;18.10;97.20;;;;;;1687760;29;20209;-70
2022/11/11 10:39:20;;;;;;;3.60;2.67;;;18.20;97.20;;;;;;1687767;29;20264;-70
2022/11/11 10:40:19;;;;;;;3.75;2.50;;;18.30;97.20;;;;;;1688099;29;20204;-70
2022/11/11 10:41:19;;;;;;;4.28;2.58;;;18.40;97.20;;;;;;1687991;29;20207;-70
2022/11/11 10:42:16;;;;;;;3.63;2.40;;;18.40;97.20;;;;;;1687929;29;20215;-70
2022/11/11 10:43:18;;;;;;;3.47;2.58;;;18.40;97.20;;;;;;1687723;29;20260;-70